createdAt,value
2017-06-22T00:01:03.428Z,9.70
2017-06-22T00:03:31.821Z,12.43
2017-06-22T00:06:00.072Z,7.83
2017-06-22T00:08:28.549Z,7.47
2017-06-22T00:10:56.199Z,9.10
2017-06-22T00:13:24.037Z,4.50
2017-06-22T00:15:52.858Z,4.60
2017-06-22T00:18:20.434Z,19.03
2017-06-22T00:20:49.344Z,4.20
2017-06-22T00:23:16.973Z,14.77
2017-06-22T00:25:45.300Z,15.60
2017-06-22T00:28:13.408Z,5.60
2017-06-22T00:30:41.062Z,9.73
2017-06-22T00:33:08.701Z,10.77
2017-06-22T00:35:37.666Z,10.57
2017-06-22T00:38:05.328Z,9.20
2017-06-22T00:40:32.948Z,4.63
2017-06-22T00:43:00.624Z,16.10
2017-06-22T00:45:28.758Z,11.30
2017-06-22T00:47:57.146Z,10.80
2017-06-22T00:50:25.084Z,8.60
2017-06-22T00:52:53.416Z,9.20
2017-06-22T00:55:21.023Z,13.20
2017-06-22T00:57:49.690Z,6.37
2017-06-22T01:00:17.300Z,9.00
2017-06-22T01:02:44.908Z,11.83
2017-06-22T01:05:12.989Z,11.27
2017-06-22T01:07:41.336Z,9.67
2017-06-22T01:10:08.934Z,9.87
2017-06-22T01:12:37.856Z,11.60
2017-06-22T01:15:05.496Z,6.07
2017-06-22T01:17:34.367Z,7.33
2017-06-22T01:20:02.223Z,5.97
2017-06-22T01:22:29.859Z,13.93
2017-06-22T01:24:57.604Z,21.93
2017-06-22T01:27:25.544Z,12.70
2017-06-22T01:29:53.174Z,8.20
2017-06-22T01:32:20.764Z,21.47
2017-06-22T01:34:49.078Z,6.90
2017-06-22T01:37:16.696Z,8.67
2017-06-22T01:39:45.047Z,6.40
2017-06-22T01:42:13.141Z,8.57
2017-06-22T01:44:40.866Z,18.77
2017-06-22T01:47:09.368Z,5.60
2017-06-22T01:49:38.032Z,8.50
2017-06-22T01:52:05.772Z,11.37
2017-06-22T01:54:33.401Z,7.17
2017-06-22T01:57:01.248Z,9.77
2017-06-22T01:59:29.702Z,25.93
2017-06-22T02:01:57.362Z,6.63
2017-06-22T02:04:25.938Z,6.43
2017-06-22T02:06:54.263Z,6.33
2017-06-22T02:09:21.854Z,12.23
2017-06-22T02:11:49.687Z,13.70
2017-06-22T02:14:17.248Z,6.27
2017-06-22T02:16:44.856Z,13.80
2017-06-22T02:19:14.415Z,12.13
2017-06-22T02:21:42.011Z,13.70
2017-06-22T02:24:09.737Z,12.27
2017-06-22T02:26:38.683Z,11.97
2017-06-22T02:29:06.381Z,13.10
2017-06-22T02:31:34.864Z,7.73
2017-06-22T02:34:03.515Z,11.03
2017-06-22T02:36:31.195Z,9.00
2017-06-22T02:38:58.910Z,9.40
2017-06-22T02:41:27.719Z,8.27
2017-06-22T02:43:55.309Z,15.80
2017-06-22T02:46:25.926Z,7.37
2017-06-22T02:48:53.557Z,5.53
2017-06-22T02:51:22.195Z,10.80
2017-06-22T02:53:49.822Z,6.00
2017-06-22T02:56:18.380Z,16.90
2017-06-22T02:58:46.717Z,13.70
2017-06-22T03:01:14.278Z,5.60
2017-06-22T03:03:42.903Z,11.70
2017-06-22T03:06:10.475Z,11.60
2017-06-22T03:08:38.137Z,17.47
2017-06-22T03:11:05.869Z,7.73
2017-06-22T03:13:34.520Z,13.57
2017-06-22T03:16:02.243Z,11.77
2017-06-22T03:18:31.156Z,10.17
2017-06-22T03:20:59.166Z,10.23
2017-06-22T03:23:26.792Z,8.37
2017-06-22T03:25:55.477Z,7.60
2017-06-22T03:28:23.089Z,3.97
2017-06-22T03:30:50.648Z,6.87
2017-06-22T03:33:19.253Z,4.63
2017-06-22T03:35:46.867Z,4.23
2017-06-22T03:38:15.209Z,12.33
2017-06-22T03:40:43.046Z,13.40
2017-06-22T03:43:10.661Z,8.40
2017-06-22T03:45:39.023Z,16.20
2017-06-22T03:48:07.341Z,12.77
2017-06-22T03:50:35.773Z,6.93
2017-06-22T03:53:03.381Z,9.03
2017-06-22T03:55:31.507Z,7.13
2017-06-22T03:57:59.111Z,10.93
2017-06-22T04:00:27.592Z,12.20
2017-06-22T04:02:56.024Z,10.23
2017-06-22T04:05:23.610Z,9.13
2017-06-22T04:07:51.176Z,9.10
2017-06-22T04:10:19.048Z,7.77
2017-06-22T04:12:46.666Z,7.43
2017-06-22T04:15:14.268Z,13.33
2017-06-22T04:17:43.330Z,9.90
2017-06-22T04:20:10.939Z,13.50
2017-06-22T04:22:40.214Z,14.33
2017-06-22T04:25:08.430Z,8.57
2017-06-22T04:27:36.068Z,15.10
2017-06-22T04:30:03.807Z,19.43
2017-06-22T04:32:31.587Z,10.40
2017-06-22T04:34:59.308Z,16.60
2017-06-22T04:37:26.949Z,8.10
2017-06-22T04:39:54.600Z,11.53
2017-06-22T04:42:22.262Z,7.30
2017-06-22T04:44:49.881Z,8.03
2017-06-22T04:47:18.053Z,25.70
2017-06-22T04:49:45.665Z,13.50
2017-06-22T04:52:13.229Z,20.73
2017-06-22T04:54:43.845Z,7.97
2017-06-22T04:57:11.409Z,8.77
2017-06-22T04:59:39.010Z,8.70
2017-06-22T05:02:07.019Z,10.60
2017-06-22T05:04:35.656Z,8.53
2017-06-22T05:07:04.074Z,21.80
2017-06-22T05:09:32.546Z,6.57
2017-06-22T05:12:00.420Z,13.63
2017-06-22T05:14:28.055Z,9.97
2017-06-22T05:16:55.677Z,7.63
2017-06-22T17:47:47.729Z,27.97
2017-06-22T17:50:15.346Z,37.13
2017-06-22T17:52:42.931Z,34.93
2017-06-22T17:55:11.787Z,41.63
2017-06-22T17:57:39.386Z,38.33
2017-06-22T18:00:07.200Z,32.30
2017-06-22T18:02:36.010Z,42.47
2017-06-22T18:05:03.653Z,37.20
2017-06-22T18:07:31.361Z,40.43
2017-06-22T18:09:59.354Z,45.57
2017-06-22T18:12:27.010Z,37.03
2017-06-22T18:14:54.599Z,31.30
2017-06-22T18:17:23.185Z,57.10
2017-06-22T18:19:50.864Z,44.17
2017-06-22T18:22:18.530Z,42.70
2017-06-22T18:24:46.598Z,38.97
2017-06-22T18:27:14.195Z,46.13
2017-06-22T18:29:42.848Z,38.67
2017-06-22T18:32:11.779Z,35.20
2017-06-22T18:34:39.368Z,36.57
2017-06-22T18:37:07.014Z,47.60
2017-06-22T18:39:35.078Z,33.53
2017-06-22T18:42:02.849Z,41.53
2017-06-22T18:44:30.997Z,34.57
2017-06-22T18:46:59.148Z,41.40
2017-06-22T18:49:26.993Z,31.53
2017-06-22T18:51:54.664Z,26.70
2017-06-22T18:54:22.825Z,28.73
2017-06-22T18:56:50.470Z,39.53
2017-06-22T18:59:18.104Z,32.83
2017-06-22T19:01:46.688Z,44.10
2017-06-22T19:04:14.280Z,21.43
2017-06-22T19:06:41.847Z,27.03
2017-06-22T19:09:09.745Z,22.23
2017-06-22T19:11:37.393Z,26.93
2017-06-22T19:14:05.042Z,25.20
2017-06-22T19:16:32.966Z,22.03
2017-06-22T19:19:00.711Z,24.23
2017-06-22T19:21:28.390Z,17.77
2017-06-22T19:23:56.740Z,19.00
2017-06-22T19:26:24.771Z,25.33
2017-06-22T19:28:52.400Z,19.90
2017-06-22T19:31:20.929Z,26.60
2017-06-22T19:33:48.534Z,15.50
2017-06-22T19:36:16.282Z,28.47
2017-06-22T19:38:45.273Z,16.33
2017-06-22T19:41:12.925Z,21.67
2017-06-22T19:43:40.642Z,23.10
2017-06-22T19:46:09.479Z,20.03
2017-06-22T19:48:37.295Z,23.27
2017-06-22T19:51:05.097Z,25.47
2017-06-22T19:53:32.869Z,18.63
2017-06-22T19:56:00.640Z,20.87
2017-06-22T19:58:29.216Z,22.53
2017-06-22T20:00:57.216Z,20.87
2017-06-22T20:03:25.595Z,24.63
2017-06-22T20:05:54.197Z,22.27
2017-06-22T20:08:22.135Z,20.27
2017-06-22T20:10:49.875Z,21.90
2017-06-22T20:13:18.244Z,21.37
2017-06-22T20:15:46.121Z,24.27
2017-06-22T20:18:13.716Z,25.03
2017-06-22T20:20:41.285Z,23.53
2017-06-22T20:23:09.843Z,27.13
2017-06-22T20:25:38.234Z,22.37
2017-06-22T20:28:05.895Z,24.90
2017-06-22T20:30:34.836Z,22.23
2017-06-22T20:33:02.622Z,19.20
2017-06-22T20:35:30.424Z,23.70
2017-06-22T20:37:59.466Z,27.33
2017-06-22T20:40:27.560Z,35.53
2017-06-22T20:42:55.895Z,19.57
2017-06-22T20:45:23.989Z,24.60
2017-06-22T20:47:51.609Z,21.60
2017-06-22T20:50:19.212Z,21.87
2017-06-22T20:52:47.016Z,20.97
2017-06-22T20:55:14.591Z,26.37
2017-06-22T20:57:42.226Z,24.60
2017-06-22T21:00:10.288Z,21.43
2017-06-22T21:02:38.101Z,28.60
2017-06-22T21:05:05.807Z,28.00
2017-06-22T21:07:33.894Z,27.37
2017-06-22T21:10:01.564Z,27.73
2017-06-22T21:12:29.290Z,32.47
2017-06-22T21:14:57.139Z,33.00
2017-06-22T21:17:24.696Z,22.07
2017-06-22T21:19:52.269Z,24.77
2017-06-22T21:22:20.723Z,26.93
2017-06-22T21:24:48.277Z,21.70
2017-06-22T21:27:16.614Z,28.17
2017-06-22T21:29:44.319Z,37.23
2017-06-22T21:32:11.952Z,31.13
2017-06-22T21:34:39.538Z,37.83
2017-06-22T21:37:08.265Z,25.90
2017-06-22T21:39:35.895Z,28.63
2017-06-22T21:42:04.317Z,34.90
2017-06-22T21:44:33.067Z,29.50
2017-06-22T21:47:00.720Z,25.70
2017-06-22T21:49:29.206Z,26.50
2017-06-22T21:51:57.117Z,31.97
2017-06-22T21:54:24.829Z,41.23
2017-06-22T21:56:52.395Z,33.70
2017-06-22T21:59:21.063Z,39.80
2017-06-22T22:01:49.424Z,41.63
2017-06-22T22:04:16.983Z,50.13
2017-06-22T22:06:45.235Z,43.90
2017-06-22T22:09:13.639Z,43.60
2017-06-22T22:11:41.211Z,38.13
2017-06-22T22:14:09.201Z,37.23
2017-06-22T22:16:37.923Z,62.10
2017-06-22T22:19:05.578Z,42.07
2017-06-22T22:21:34.110Z,40.33
2017-06-22T22:24:02.185Z,48.20
2017-06-22T22:26:29.793Z,52.67
2017-06-22T22:28:58.621Z,61.93
2017-06-22T22:31:26.188Z,50.77
2017-06-22T22:33:53.748Z,49.20
2017-06-22T22:36:22.084Z,54.70
2017-06-22T22:38:49.639Z,77.70
2017-06-22T22:41:17.215Z,66.23
2017-06-22T22:43:45.065Z,68.60
2017-06-22T22:46:12.659Z,58.40
2017-06-22T22:48:40.224Z,65.13
2017-06-22T22:51:09.583Z,65.80
2017-06-22T22:53:37.249Z,66.93
